sensor_id;sensor_type;location;lat;lon;timestamp;P1;durP1;ratioP1;P2;durP2;ratioP2
57401;SDS011;43226;51.110;6.998;2023-10-09T00:01:17;30.03;;;13.00;;
57401;SDS011;43226;51.110;6.998;2023-10-09T00:03:43;26.80;;;12.97;;
57401;SDS011;43226;51.110;6.998;2023-10-09T00:06:09;58.00;;;15.90;;
57401;SDS011;43226;51.110;6.998;2023-10-09T00:08:40;19.77;;;12.33;;
57401;SDS011;43226;51.110;6.998;2023-10-09T00:11:10;26.80;;;12.23;;
57401;SDS011;43226;51.110;6.998;2023-10-09T00:13:40;22.87;;;12.67;;
57401;SDS011;43226;51.110;6.998;2023-10-09T00:16:19;26.40;;;13.80;;
57401;SDS011;43226;51.110;6.998;2023-10-09T00:19:01;25.27;;;11.87;;
57401;SDS011;43226;51.110;6.998;2023-10-09T00:24:10;24.87;;;12.50;;
57401;SDS011;43226;51.110;6.998;2023-10-09T00:26:39;26.87;;;13.00;;
57401;SDS011;43226;51.110;6.998;2023-10-09T00:29:09;26.43;;;12.80;;
57401;SDS011;43226;51.110;6.998;2023-10-09T00:31:40;27.00;;;11.80;;
57401;SDS011;43226;51.110;6.998;2023-10-09T00:34:15;31.83;;;13.67;;
57401;SDS011;43226;51.110;6.998;2023-10-09T00:36:44;23.63;;;11.30;;
57401;SDS011;43226;51.110;6.998;2023-10-09T00:39:15;27.43;;;11.50;;
57401;SDS011;43226;51.110;6.998;2023-10-09T00:42:00;20.83;;;10.80;;
57401;SDS011;43226;51.110;6.998;2023-10-09T00:44:26;27.77;;;12.07;;
57401;SDS011;43226;51.110;6.998;2023-10-09T00:47:02;23.73;;;11.63;;
57401;SDS011;43226;51.110;6.998;2023-10-09T00:49:35;27.07;;;11.77;;
57401;SDS011;43226;51.110;6.998;2023-10-09T00:52:04;20.20;;;11.00;;
57401;SDS011;43226;51.110;6.998;2023-10-09T00:54:29;22.97;;;10.93;;
57401;SDS011;43226;51.110;6.998;2023-10-09T00:57:05;25.03;;;13.63;;
57401;SDS011;43226;51.110;6.998;2023-10-09T00:59:32;23.10;;;12.20;;
57401;SDS011;43226;51.110;6.998;2023-10-09T01:01:59;22.40;;;11.57;;
57401;SDS011;43226;51.110;6.998;2023-10-09T01:04:29;25.73;;;10.33;;
57401;SDS011;43226;51.110;6.998;2023-10-09T01:07:01;23.60;;;11.90;;
57401;SDS011;43226;51.110;6.998;2023-10-09T01:09:34;35.30;;;12.40;;
57401;SDS011;43226;51.110;6.998;2023-10-09T01:12:02;20.40;;;10.50;;
57401;SDS011;43226;51.110;6.998;2023-10-09T01:14:29;26.50;;;11.03;;
57401;SDS011;43226;51.110;6.998;2023-10-09T01:16:56;25.23;;;11.90;;
57401;SDS011;43226;51.110;6.998;2023-10-09T01:19:22;21.27;;;12.27;;
57401;SDS011;43226;51.110;6.998;2023-10-09T01:21:53;25.20;;;11.70;;
57401;SDS011;43226;51.110;6.998;2023-10-09T01:24:19;23.17;;;11.00;;
57401;SDS011;43226;51.110;6.998;2023-10-09T01:26:51;22.57;;;10.90;;
57401;SDS011;43226;51.110;6.998;2023-10-09T01:29:20;22.20;;;11.33;;
57401;SDS011;43226;51.110;6.998;2023-10-09T01:31:46;17.40;;;9.83;;
57401;SDS011;43226;51.110;6.998;2023-10-09T01:36:49;18.07;;;9.07;;
57401;SDS011;43226;51.110;6.998;2023-10-09T01:39:15;25.07;;;11.40;;
57401;SDS011;43226;51.110;6.998;2023-10-09T01:41:51;17.23;;;9.13;;
57401;SDS011;43226;51.110;6.998;2023-10-09T01:44:30;21.07;;;10.10;;
57401;SDS011;43226;51.110;6.998;2023-10-09T01:46:59;26.70;;;11.03;;
57401;SDS011;43226;51.110;6.998;2023-10-09T01:49:25;22.33;;;11.37;;
57401;SDS011;43226;51.110;6.998;2023-10-09T01:51:56;24.83;;;11.60;;
57401;SDS011;43226;51.110;6.998;2023-10-09T01:54:28;17.00;;;9.63;;
57401;SDS011;43226;51.110;6.998;2023-10-09T01:57:02;22.03;;;10.67;;
57401;SDS011;43226;51.110;6.998;2023-10-09T01:59:31;21.47;;;10.57;;
57401;SDS011;43226;51.110;6.998;2023-10-09T02:01:56;23.33;;;10.00;;
57401;SDS011;43226;51.110;6.998;2023-10-09T02:04:23;21.97;;;10.07;;
57401;SDS011;43226;51.110;6.998;2023-10-09T02:06:48;21.33;;;11.90;;
57401;SDS011;43226;51.110;6.998;2023-10-09T02:09:17;18.93;;;8.60;;
57401;SDS011;43226;51.110;6.998;2023-10-09T02:11:47;20.40;;;10.43;;
57401;SDS011;43226;51.110;6.998;2023-10-09T02:14:13;23.07;;;9.37;;
57401;SDS011;43226;51.110;6.998;2023-10-09T02:16:44;23.23;;;10.47;;
57401;SDS011;43226;51.110;6.998;2023-10-09T02:19:10;18.60;;;9.70;;
57401;SDS011;43226;51.110;6.998;2023-10-09T02:21:54;25.57;;;9.60;;
57401;SDS011;43226;51.110;6.998;2023-10-09T02:24:21;21.97;;;9.70;;
57401;SDS011;43226;51.110;6.998;2023-10-09T02:27:05;16.20;;;9.43;;
57401;SDS011;43226;51.110;6.998;2023-10-09T02:29:33;18.50;;;10.13;;
57401;SDS011;43226;51.110;6.998;2023-10-09T02:32:03;20.47;;;8.73;;
57401;SDS011;43226;51.110;6.998;2023-10-09T02:34:38;19.63;;;9.80;;
57401;SDS011;43226;51.110;6.998;2023-10-09T02:37:03;15.30;;;8.57;;
57401;SDS011;43226;51.110;6.998;2023-10-09T02:39:37;21.57;;;9.73;;
57401;SDS011;43226;51.110;6.998;2023-10-09T02:42:08;17.97;;;8.67;;
57401;SDS011;43226;51.110;6.998;2023-10-09T02:44:39;16.70;;;9.30;;
57401;SDS011;43226;51.110;6.998;2023-10-09T02:47:11;15.47;;;8.90;;
57401;SDS011;43226;51.110;6.998;2023-10-09T02:49:43;16.13;;;8.73;;
57401;SDS011;43226;51.110;6.998;2023-10-09T02:52:08;17.50;;;9.20;;
57401;SDS011;43226;51.110;6.998;2023-10-09T02:54:35;16.03;;;8.53;;
57401;SDS011;43226;51.110;6.998;2023-10-09T02:57:01;18.27;;;9.20;;
57401;SDS011;43226;51.110;6.998;2023-10-09T02:59:33;18.53;;;8.80;;
57401;SDS011;43226;51.110;6.998;2023-10-09T03:01:58;14.93;;;8.80;;
57401;SDS011;43226;51.110;6.998;2023-10-09T03:04:25;19.20;;;8.70;;
57401;SDS011;43226;51.110;6.998;2023-10-09T03:06:52;16.97;;;9.13;;
57401;SDS011;43226;51.110;6.998;2023-10-09T03:09:22;18.07;;;8.00;;
57401;SDS011;43226;51.110;6.998;2023-10-09T03:11:56;20.70;;;9.10;;
57401;SDS011;43226;51.110;6.998;2023-10-09T03:14:27;17.23;;;9.20;;
57401;SDS011;43226;51.110;6.998;2023-10-09T03:16:53;13.33;;;8.47;;
57401;SDS011;43226;51.110;6.998;2023-10-09T03:19:18;15.97;;;8.60;;
57401;SDS011;43226;51.110;6.998;2023-10-09T03:21:43;12.90;;;8.03;;
57401;SDS011;43226;51.110;6.998;2023-10-09T03:24:09;15.97;;;9.00;;
57401;SDS011;43226;51.110;6.998;2023-10-09T03:26:36;14.30;;;8.47;;
57401;SDS011;43226;51.110;6.998;2023-10-09T03:29:01;17.40;;;8.93;;
57401;SDS011;43226;51.110;6.998;2023-10-09T03:31:31;16.70;;;8.93;;
57401;SDS011;43226;51.110;6.998;2023-10-09T03:33:56;17.23;;;9.13;;
57401;SDS011;43226;51.110;6.998;2023-10-09T03:36:22;14.67;;;8.53;;
57401;SDS011;43226;51.110;6.998;2023-10-09T03:38:51;17.07;;;7.93;;
57401;SDS011;43226;51.110;6.998;2023-10-09T03:41:19;16.90;;;8.40;;
57401;SDS011;43226;51.110;6.998;2023-10-09T03:43:45;19.13;;;9.63;;
57401;SDS011;43226;51.110;6.998;2023-10-09T03:46:11;15.60;;;7.33;;
57401;SDS011;43226;51.110;6.998;2023-10-09T03:48:58;13.67;;;7.80;;
57401;SDS011;43226;51.110;6.998;2023-10-09T03:51:29;17.63;;;8.50;;
57401;SDS011;43226;51.110;6.998;2023-10-09T03:53:54;16.67;;;7.27;;
57401;SDS011;43226;51.110;6.998;2023-10-09T03:56:20;20.03;;;8.70;;
57401;SDS011;43226;51.110;6.998;2023-10-09T03:58:48;12.33;;;7.43;;
57401;SDS011;43226;51.110;6.998;2023-10-09T04:01:15;15.70;;;8.00;;
57401;SDS011;43226;51.110;6.998;2023-10-09T04:03:54;13.63;;;8.10;;
57401;SDS011;43226;51.110;6.998;2023-10-09T04:06:29;16.70;;;8.20;;
57401;SDS011;43226;51.110;6.998;2023-10-09T04:08:58;15.70;;;8.97;;
57401;SDS011;43226;51.110;6.998;2023-10-09T04:11:24;16.50;;;8.23;;
57401;SDS011;43226;51.110;6.998;2023-10-09T04:13:49;16.07;;;8.10;;
57401;SDS011;43226;51.110;6.998;2023-10-09T04:16:15;17.63;;;8.13;;
57401;SDS011;43226;51.110;6.998;2023-10-09T04:18:58;15.97;;;8.70;;
57401;SDS011;43226;51.110;6.998;2023-10-09T04:21:24;16.13;;;9.10;;
57401;SDS011;43226;51.110;6.998;2023-10-09T04:23:59;12.90;;;7.10;;
57401;SDS011;43226;51.110;6.998;2023-10-09T04:26:24;20.93;;;8.63;;
57401;SDS011;43226;51.110;6.998;2023-10-09T04:28:50;16.37;;;8.80;;
57401;SDS011;43226;51.110;6.998;2023-10-09T04:31:17;14.00;;;8.37;;
57401;SDS011;43226;51.110;6.998;2023-10-09T04:33:44;16.50;;;8.80;;
57401;SDS011;43226;51.110;6.998;2023-10-09T04:36:19;12.63;;;8.40;;
57401;SDS011;43226;51.110;6.998;2023-10-09T04:38:44;14.07;;;8.37;;
57401;SDS011;43226;51.110;6.998;2023-10-09T04:41:28;15.90;;;8.73;;
57401;SDS011;43226;51.110;6.998;2023-10-09T04:43:57;16.40;;;8.50;;
57401;SDS011;43226;51.110;6.998;2023-10-09T04:46:49;12.70;;;8.07;;
57401;SDS011;43226;51.110;6.998;2023-10-09T04:49:33;16.53;;;8.83;;
57401;SDS011;43226;51.110;6.998;2023-10-09T04:52:26;14.17;;;6.27;;
57401;SDS011;43226;51.110;6.998;2023-10-09T04:54:55;15.37;;;7.20;;
57401;SDS011;43226;51.110;6.998;2023-10-09T04:57:35;14.00;;;8.47;;
57401;SDS011;43226;51.110;6.998;2023-10-09T05:00:23;10.90;;;7.33;;
57401;SDS011;43226;51.110;6.998;2023-10-09T05:02:55;11.87;;;7.77;;
57401;SDS011;43226;51.110;6.998;2023-10-09T05:05:21;17.67;;;8.37;;
57401;SDS011;43226;51.110;6.998;2023-10-09T05:08:05;16.23;;;8.00;;
57401;SDS011;43226;51.110;6.998;2023-10-09T05:10:59;13.13;;;8.10;;
57401;SDS011;43226;51.110;6.998;2023-10-09T05:13:31;14.87;;;8.30;;
57401;SDS011;43226;51.110;6.998;2023-10-09T05:16:14;14.37;;;8.57;;
57401;SDS011;43226;51.110;6.998;2023-10-09T05:18:58;15.50;;;8.77;;
57401;SDS011;43226;51.110;6.998;2023-10-09T05:21:32;16.03;;;8.10;;
57401;SDS011;43226;51.110;6.998;2023-10-09T05:23:58;14.33;;;7.30;;
57401;SDS011;43226;51.110;6.998;2023-10-09T05:26:39;17.57;;;7.67;;
57401;SDS011;43226;51.110;6.998;2023-10-09T05:29:15;17.77;;;7.07;;
57401;SDS011;43226;51.110;6.998;2023-10-09T05:31:59;12.57;;;7.47;;
57401;SDS011;43226;51.110;6.998;2023-10-09T05:34:40;16.20;;;8.43;;
57401;SDS011;43226;51.110;6.998;2023-10-09T05:37:27;9.90;;;7.00;;
57401;SDS011;43226;51.110;6.998;2023-10-09T05:39:59;11.40;;;7.50;;
57401;SDS011;43226;51.110;6.998;2023-10-09T05:42:25;15.10;;;7.90;;
57401;SDS011;43226;51.110;6.998;2023-10-09T05:45:11;13.60;;;7.93;;
57401;SDS011;43226;51.110;6.998;2023-10-09T05:47:52;15.53;;;7.97;;
57401;SDS011;43226;51.110;6.998;2023-10-09T05:50:52;15.20;;;7.73;;
57401;SDS011;43226;51.110;6.998;2023-10-09T05:53:36;17.53;;;7.97;;
57401;SDS011;43226;51.110;6.998;2023-10-09T05:56:10;13.20;;;7.93;;
57401;SDS011;43226;51.110;6.998;2023-10-09T05:58:54;15.83;;;8.70;;
57401;SDS011;43226;51.110;6.998;2023-10-09T06:01:31;16.90;;;8.97;;
57401;SDS011;43226;51.110;6.998;2023-10-09T06:04:05;15.70;;;8.13;;
57401;SDS011;43226;51.110;6.998;2023-10-09T06:06:40;17.03;;;7.90;;
57401;SDS011;43226;51.110;6.998;2023-10-09T06:09:10;17.77;;;7.97;;
57401;SDS011;43226;51.110;6.998;2023-10-09T06:11:49;13.60;;;8.40;;
57401;SDS011;43226;51.110;6.998;2023-10-09T06:14:18;18.77;;;8.27;;
57401;SDS011;43226;51.110;6.998;2023-10-09T06:16:50;12.70;;;7.63;;
57401;SDS011;43226;51.110;6.998;2023-10-09T06:19:22;15.57;;;7.97;;
57401;SDS011;43226;51.110;6.998;2023-10-09T06:21:47;15.93;;;8.60;;
57401;SDS011;43226;51.110;6.998;2023-10-09T06:26:44;25.10;;;7.70;;
57401;SDS011;43226;51.110;6.998;2023-10-09T06:29:27;17.40;;;7.97;;
57401;SDS011;43226;51.110;6.998;2023-10-09T06:32:15;18.07;;;7.80;;
57401;SDS011;43226;51.110;6.998;2023-10-09T06:37:16;14.63;;;8.50;;
57401;SDS011;43226;51.110;6.998;2023-10-09T06:39:55;15.50;;;7.70;;
57401;SDS011;43226;51.110;6.998;2023-10-09T06:42:20;13.87;;;8.20;;
57401;SDS011;43226;51.110;6.998;2023-10-09T06:45:01;18.40;;;7.87;;
57401;SDS011;43226;51.110;6.998;2023-10-09T06:47:40;13.30;;;9.07;;
57401;SDS011;43226;51.110;6.998;2023-10-09T06:50:15;19.30;;;9.23;;
57401;SDS011;43226;51.110;6.998;2023-10-09T06:52:47;12.40;;;7.37;;
57401;SDS011;43226;51.110;6.998;2023-10-09T06:55:37;11.20;;;7.33;;
57401;SDS011;43226;51.110;6.998;2023-10-09T06:58:19;16.90;;;7.33;;
57401;SDS011;43226;51.110;6.998;2023-10-09T07:00:50;17.70;;;7.03;;
57401;SDS011;43226;51.110;6.998;2023-10-09T07:03:57;16.80;;;7.93;;
57401;SDS011;43226;51.110;6.998;2023-10-09T07:06:35;11.67;;;7.53;;
57401;SDS011;43226;51.110;6.998;2023-10-09T07:09:01;10.80;;;7.00;;
57401;SDS011;43226;51.110;6.998;2023-10-09T07:11:31;16.30;;;7.87;;
57401;SDS011;43226;51.110;6.998;2023-10-09T07:16:57;12.63;;;7.20;;
57401;SDS011;43226;51.110;6.998;2023-10-09T07:19:23;12.07;;;7.13;;
57401;SDS011;43226;51.110;6.998;2023-10-09T07:22:15;17.23;;;8.53;;
57401;SDS011;43226;51.110;6.998;2023-10-09T07:24:51;11.57;;;6.90;;
57401;SDS011;43226;51.110;6.998;2023-10-09T07:27:25;13.53;;;6.80;;
57401;SDS011;43226;51.110;6.998;2023-10-09T07:30:10;15.50;;;8.33;;
57401;SDS011;43226;51.110;6.998;2023-10-09T07:33:03;9.67;;;6.77;;
57401;SDS011;43226;51.110;6.998;2023-10-09T07:35:34;12.43;;;7.80;;
57401;SDS011;43226;51.110;6.998;2023-10-09T07:38:18;13.87;;;8.83;;
57401;SDS011;43226;51.110;6.998;2023-10-09T07:40:54;15.00;;;9.03;;
57401;SDS011;43226;51.110;6.998;2023-10-09T07:43:35;14.57;;;8.23;;
57401;SDS011;43226;51.110;6.998;2023-10-09T07:46:04;16.33;;;9.43;;
57401;SDS011;43226;51.110;6.998;2023-10-09T07:48:29;23.10;;;10.00;;
57401;SDS011;43226;51.110;6.998;2023-10-09T07:51:11;22.73;;;10.33;;
57401;SDS011;43226;51.110;6.998;2023-10-09T07:53:37;15.97;;;9.17;;
57401;SDS011;43226;51.110;6.998;2023-10-09T07:56:11;18.40;;;9.40;;
57401;SDS011;43226;51.110;6.998;2023-10-09T07:58:38;15.80;;;7.80;;
57401;SDS011;43226;51.110;6.998;2023-10-09T08:01:13;14.27;;;8.00;;
57401;SDS011;43226;51.110;6.998;2023-10-09T08:03:47;15.53;;;6.17;;
57401;SDS011;43226;51.110;6.998;2023-10-09T08:06:22;13.63;;;7.20;;
57401;SDS011;43226;51.110;6.998;2023-10-09T08:09:06;13.97;;;8.07;;
57401;SDS011;43226;51.110;6.998;2023-10-09T08:11:37;13.03;;;7.70;;
57401;SDS011;43226;51.110;6.998;2023-10-09T08:14:05;16.00;;;8.30;;
57401;SDS011;43226;51.110;6.998;2023-10-09T08:16:50;15.43;;;7.77;;
57401;SDS011;43226;51.110;6.998;2023-10-09T08:19:16;17.33;;;7.93;;
57401;SDS011;43226;51.110;6.998;2023-10-09T08:21:57;10.27;;;7.20;;
57401;SDS011;43226;51.110;6.998;2023-10-09T08:24:41;10.23;;;6.80;;
57401;SDS011;43226;51.110;6.998;2023-10-09T08:27:09;13.50;;;7.30;;
57401;SDS011;43226;51.110;6.998;2023-10-09T08:29:53;20.27;;;7.97;;
57401;SDS011;43226;51.110;6.998;2023-10-09T08:32:37;27.53;;;9.27;;
57401;SDS011;43226;51.110;6.998;2023-10-09T08:35:07;12.83;;;7.77;;
57401;SDS011;43226;51.110;6.998;2023-10-09T08:37:51;21.60;;;9.50;;
57401;SDS011;43226;51.110;6.998;2023-10-09T08:40:18;19.60;;;8.70;;
57401;SDS011;43226;51.110;6.998;2023-10-09T08:42:49;21.80;;;8.10;;
57401;SDS011;43226;51.110;6.998;2023-10-09T08:45:17;13.80;;;7.90;;
57401;SDS011;43226;51.110;6.998;2023-10-09T08:47:47;12.60;;;7.30;;
57401;SDS011;43226;51.110;6.998;2023-10-09T08:50:14;13.50;;;7.70;;
57401;SDS011;43226;51.110;6.998;2023-10-09T08:52:40;14.97;;;6.77;;
57401;SDS011;43226;51.110;6.998;2023-10-09T08:55:05;9.90;;;6.70;;
57401;SDS011;43226;51.110;6.998;2023-10-09T08:57:30;13.73;;;7.17;;
57401;SDS011;43226;51.110;6.998;2023-10-09T08:59:56;12.67;;;7.70;;
57401;SDS011;43226;51.110;6.998;2023-10-09T09:02:21;13.17;;;7.30;;
57401;SDS011;43226;51.110;6.998;2023-10-09T09:04:46;16.87;;;8.17;;
57401;SDS011;43226;51.110;6.998;2023-10-09T09:07:28;17.30;;;7.37;;
57401;SDS011;43226;51.110;6.998;2023-10-09T09:09:59;13.97;;;7.90;;
57401;SDS011;43226;51.110;6.998;2023-10-09T09:12:42;13.57;;;7.27;;
57401;SDS011;43226;51.110;6.998;2023-10-09T09:15:13;13.50;;;7.40;;
57401;SDS011;43226;51.110;6.998;2023-10-09T09:17:43;14.40;;;6.83;;
57401;SDS011;43226;51.110;6.998;2023-10-09T09:20:23;17.40;;;7.57;;
57401;SDS011;43226;51.110;6.998;2023-10-09T09:22:53;13.10;;;6.40;;
57401;SDS011;43226;51.110;6.998;2023-10-09T09:25:21;17.70;;;7.60;;
57401;SDS011;43226;51.110;6.998;2023-10-09T09:27:49;14.50;;;8.10;;
57401;SDS011;43226;51.110;6.998;2023-10-09T09:30:24;12.03;;;7.00;;
57401;SDS011;43226;51.110;6.998;2023-10-09T09:32:49;17.20;;;7.20;;
57401;SDS011;43226;51.110;6.998;2023-10-09T09:35:35;13.93;;;6.80;;
57401;SDS011;43226;51.110;6.998;2023-10-09T09:38:00;12.77;;;7.77;;
57401;SDS011;43226;51.110;6.998;2023-10-09T09:40:29;21.30;;;7.60;;
57401;SDS011;43226;51.110;6.998;2023-10-09T09:42:57;12.93;;;6.73;;
57401;SDS011;43226;51.110;6.998;2023-10-09T09:45:29;11.90;;;6.70;;
57401;SDS011;43226;51.110;6.998;2023-10-09T09:47:57;12.00;;;6.40;;
57401;SDS011;43226;51.110;6.998;2023-10-09T09:50:26;9.80;;;5.83;;
57401;SDS011;43226;51.110;6.998;2023-10-09T09:52:54;14.40;;;5.93;;
57401;SDS011;43226;51.110;6.998;2023-10-09T09:55:19;9.83;;;6.17;;
57401;SDS011;43226;51.110;6.998;2023-10-09T09:57:48;10.30;;;6.60;;
57401;SDS011;43226;51.110;6.998;2023-10-09T10:00:16;11.03;;;6.30;;
57401;SDS011;43226;51.110;6.998;2023-10-09T10:02:53;10.43;;;5.63;;
57401;SDS011;43226;51.110;6.998;2023-10-09T10:05:21;13.67;;;6.90;;
57401;SDS011;43226;51.110;6.998;2023-10-09T10:07:46;13.23;;;6.20;;
57401;SDS011;43226;51.110;6.998;2023-10-09T10:12:58;18.10;;;6.50;;
57401;SDS011;43226;51.110;6.998;2023-10-09T10:18:10;14.60;;;5.80;;
57401;SDS011;43226;51.110;6.998;2023-10-09T10:23:27;10.77;;;5.77;;
57401;SDS011;43226;51.110;6.998;2023-10-09T10:25:57;9.90;;;6.10;;
57401;SDS011;43226;51.110;6.998;2023-10-09T10:28:40;8.57;;;5.53;;
57401;SDS011;43226;51.110;6.998;2023-10-09T10:31:10;14.97;;;5.20;;
57401;SDS011;43226;51.110;6.998;2023-10-09T10:36:19;9.30;;;5.53;;
57401;SDS011;43226;51.110;6.998;2023-10-09T10:38:48;7.70;;;4.97;;
57401;SDS011;43226;51.110;6.998;2023-10-09T10:41:29;7.73;;;4.80;;
57401;SDS011;43226;51.110;6.998;2023-10-09T10:44:00;7.80;;;5.10;;
57401;SDS011;43226;51.110;6.998;2023-10-09T10:46:45;12.13;;;4.70;;
57401;SDS011;43226;51.110;6.998;2023-10-09T10:49:16;10.30;;;5.47;;
57401;SDS011;43226;51.110;6.998;2023-10-09T10:51:45;8.10;;;4.87;;
57401;SDS011;43226;51.110;6.998;2023-10-09T10:54:24;11.47;;;6.03;;
57401;SDS011;43226;51.110;6.998;2023-10-09T10:56:58;12.50;;;5.50;;
57401;SDS011;43226;51.110;6.998;2023-10-09T10:59:25;12.00;;;5.17;;
57401;SDS011;43226;51.110;6.998;2023-10-09T11:01:51;11.07;;;5.50;;
57401;SDS011;43226;51.110;6.998;2023-10-09T11:04:26;13.80;;;5.00;;
57401;SDS011;43226;51.110;6.998;2023-10-09T11:06:57;6.40;;;4.67;;
57401;SDS011;43226;51.110;6.998;2023-10-09T11:09:54;9.00;;;5.30;;
57401;SDS011;43226;51.110;6.998;2023-10-09T11:12:30;13.27;;;5.17;;
57401;SDS011;43226;51.110;6.998;2023-10-09T11:15:08;8.60;;;4.73;;
57401;SDS011;43226;51.110;6.998;2023-10-09T11:20:36;12.10;;;4.60;;
57401;SDS011;43226;51.110;6.998;2023-10-09T11:23:03;11.80;;;5.53;;
57401;SDS011;43226;51.110;6.998;2023-10-09T11:25:45;9.00;;;5.40;;
57401;SDS011;43226;51.110;6.998;2023-10-09T11:28:18;11.17;;;5.20;;
57401;SDS011;43226;51.110;6.998;2023-10-09T11:30:54;8.50;;;5.60;;
57401;SDS011;43226;51.110;6.998;2023-10-09T11:33:20;12.83;;;4.80;;
57401;SDS011;43226;51.110;6.998;2023-10-09T11:35:56;7.80;;;5.20;;
57401;SDS011;43226;51.110;6.998;2023-10-09T11:38:22;11.03;;;5.23;;
57401;SDS011;43226;51.110;6.998;2023-10-09T11:40:48;16.00;;;5.67;;
57401;SDS011;43226;51.110;6.998;2023-10-09T11:43:13;12.63;;;6.07;;
57401;SDS011;43226;51.110;6.998;2023-10-09T11:45:39;6.87;;;4.90;;
57401;SDS011;43226;51.110;6.998;2023-10-09T11:48:17;7.23;;;4.73;;
57401;SDS011;43226;51.110;6.998;2023-10-09T11:51:12;11.63;;;6.40;;
57401;SDS011;43226;51.110;6.998;2023-10-09T11:53:46;14.30;;;5.40;;
57401;SDS011;43226;51.110;6.998;2023-10-09T11:56:15;10.93;;;6.40;;
57401;SDS011;43226;51.110;6.998;2023-10-09T11:58:42;11.23;;;6.63;;
57401;SDS011;43226;51.110;6.998;2023-10-09T12:01:11;14.73;;;5.67;;
57401;SDS011;43226;51.110;6.998;2023-10-09T12:03:41;9.50;;;6.30;;
57401;SDS011;43226;51.110;6.998;2023-10-09T12:06:06;13.13;;;6.40;;
57401;SDS011;43226;51.110;6.998;2023-10-09T12:08:37;10.57;;;5.20;;
57401;SDS011;43226;51.110;6.998;2023-10-09T12:11:05;14.27;;;6.13;;
57401;SDS011;43226;51.110;6.998;2023-10-09T12:13:33;7.50;;;5.73;;
57401;SDS011;43226;51.110;6.998;2023-10-09T12:15:58;13.30;;;6.60;;
57401;SDS011;43226;51.110;6.998;2023-10-09T12:18:23;13.63;;;5.87;;
57401;SDS011;43226;51.110;6.998;2023-10-09T12:20:50;8.83;;;6.20;;
57401;SDS011;43226;51.110;6.998;2023-10-09T12:23:20;12.13;;;6.47;;
57401;SDS011;43226;51.110;6.998;2023-10-09T12:25:48;13.10;;;7.10;;
57401;SDS011;43226;51.110;6.998;2023-10-09T12:28:13;15.13;;;7.03;;
57401;SDS011;43226;51.110;6.998;2023-10-09T12:30:38;11.43;;;7.13;;
57401;SDS011;43226;51.110;6.998;2023-10-09T12:33:05;11.23;;;6.87;;
57401;SDS011;43226;51.110;6.998;2023-10-09T12:35:35;9.40;;;6.07;;
57401;SDS011;43226;51.110;6.998;2023-10-09T12:38:00;10.60;;;5.50;;
57401;SDS011;43226;51.110;6.998;2023-10-09T12:40:26;13.53;;;6.27;;
57401;SDS011;43226;51.110;6.998;2023-10-09T12:42:56;14.30;;;6.77;;
57401;SDS011;43226;51.110;6.998;2023-10-09T12:45:24;12.67;;;6.30;;
57401;SDS011;43226;51.110;6.998;2023-10-09T12:47:55;11.20;;;6.47;;
57401;SDS011;43226;51.110;6.998;2023-10-09T12:50:24;13.10;;;6.23;;
57401;SDS011;43226;51.110;6.998;2023-10-09T12:52:54;10.77;;;5.57;;
57401;SDS011;43226;51.110;6.998;2023-10-09T12:55:19;17.10;;;5.80;;
57401;SDS011;43226;51.110;6.998;2023-10-09T12:57:46;17.40;;;6.50;;
57401;SDS011;43226;51.110;6.998;2023-10-09T13:00:13;8.90;;;5.50;;
57401;SDS011;43226;51.110;6.998;2023-10-09T13:02:38;12.53;;;6.20;;
57401;SDS011;43226;51.110;6.998;2023-10-09T13:05:08;10.70;;;6.33;;
57401;SDS011;43226;51.110;6.998;2023-10-09T13:07:35;11.60;;;5.97;;
57401;SDS011;43226;51.110;6.998;2023-10-09T13:10:00;10.50;;;6.00;;
57401;SDS011;43226;51.110;6.998;2023-10-09T13:12:43;9.33;;;5.47;;
57401;SDS011;43226;51.110;6.998;2023-10-09T13:15:11;13.40;;;6.13;;
57401;SDS011;43226;51.110;6.998;2023-10-09T13:17:36;14.47;;;5.37;;
57401;SDS011;43226;51.110;6.998;2023-10-09T13:20:02;10.70;;;6.00;;
57401;SDS011;43226;51.110;6.998;2023-10-09T13:22:37;8.70;;;5.23;;
57401;SDS011;43226;51.110;6.998;2023-10-09T13:25:03;13.17;;;5.37;;
57401;SDS011;43226;51.110;6.998;2023-10-09T13:27:29;12.87;;;6.90;;
57401;SDS011;43226;51.110;6.998;2023-10-09T13:29:59;16.13;;;6.43;;
57401;SDS011;43226;51.110;6.998;2023-10-09T13:32:30;13.17;;;5.23;;
57401;SDS011;43226;51.110;6.998;2023-10-09T13:34:58;11.80;;;6.20;;
57401;SDS011;43226;51.110;6.998;2023-10-09T13:37:27;7.03;;;5.37;;
57401;SDS011;43226;51.110;6.998;2023-10-09T13:39:52;11.47;;;5.80;;
57401;SDS011;43226;51.110;6.998;2023-10-09T13:42:17;14.93;;;6.70;;
57401;SDS011;43226;51.110;6.998;2023-10-09T13:44:43;6.83;;;5.60;;
57401;SDS011;43226;51.110;6.998;2023-10-09T13:47:08;12.40;;;6.00;;
57401;SDS011;43226;51.110;6.998;2023-10-09T13:49:44;10.50;;;5.60;;
57401;SDS011;43226;51.110;6.998;2023-10-09T13:52:09;11.53;;;6.40;;
57401;SDS011;43226;51.110;6.998;2023-10-09T13:54:34;12.97;;;6.40;;
57401;SDS011;43226;51.110;6.998;2023-10-09T13:57:00;16.10;;;7.07;;
57401;SDS011;43226;51.110;6.998;2023-10-09T13:59:25;14.50;;;7.27;;
57401;SDS011;43226;51.110;6.998;2023-10-09T14:01:53;13.60;;;6.93;;
57401;SDS011;43226;51.110;6.998;2023-10-09T14:04:24;13.73;;;7.00;;
57401;SDS011;43226;51.110;6.998;2023-10-09T14:06:49;8.87;;;5.80;;
57401;SDS011;43226;51.110;6.998;2023-10-09T14:09:22;16.73;;;6.97;;
57401;SDS011;43226;51.110;6.998;2023-10-09T14:11:59;14.10;;;6.23;;
57401;SDS011;43226;51.110;6.998;2023-10-09T14:14:35;10.97;;;6.80;;
57401;SDS011;43226;51.110;6.998;2023-10-09T14:17:03;11.43;;;6.00;;
57401;SDS011;43226;51.110;6.998;2023-10-09T14:19:36;15.87;;;7.03;;
57401;SDS011;43226;51.110;6.998;2023-10-09T14:22:01;11.60;;;6.30;;
57401;SDS011;43226;51.110;6.998;2023-10-09T14:24:30;9.53;;;6.47;;
57401;SDS011;43226;51.110;6.998;2023-10-09T14:42:01;13.60;;;6.60;;
57401;SDS011;43226;51.110;6.998;2023-10-09T14:44:34;15.57;;;5.50;;
57401;SDS011;43226;51.110;6.998;2023-10-09T14:47:02;11.03;;;6.40;;
57401;SDS011;43226;51.110;6.998;2023-10-09T14:49:30;11.53;;;6.40;;
57401;SDS011;43226;51.110;6.998;2023-10-09T14:51:59;16.73;;;6.70;;
57401;SDS011;43226;51.110;6.998;2023-10-09T14:54:25;11.20;;;6.73;;
57401;SDS011;43226;51.110;6.998;2023-10-09T14:56:51;13.30;;;7.03;;
57401;SDS011;43226;51.110;6.998;2023-10-09T14:59:19;15.70;;;6.80;;
57401;SDS011;43226;51.110;6.998;2023-10-09T15:01:47;12.93;;;6.63;;
57401;SDS011;43226;51.110;6.998;2023-10-09T15:04:13;9.23;;;6.00;;
57401;SDS011;43226;51.110;6.998;2023-10-09T15:06:39;14.60;;;6.77;;
57401;SDS011;43226;51.110;6.998;2023-10-09T15:09:05;12.33;;;5.67;;
57401;SDS011;43226;51.110;6.998;2023-10-09T15:11:34;12.53;;;6.00;;
57401;SDS011;43226;51.110;6.998;2023-10-09T15:13:59;9.57;;;6.33;;
57401;SDS011;43226;51.110;6.998;2023-10-09T15:16:24;16.60;;;5.73;;
57401;SDS011;43226;51.110;6.998;2023-10-09T15:18:52;7.40;;;5.80;;
57401;SDS011;43226;51.110;6.998;2023-10-09T15:21:18;12.50;;;6.33;;
57401;SDS011;43226;51.110;6.998;2023-10-09T15:23:47;21.07;;;6.00;;
57401;SDS011;43226;51.110;6.998;2023-10-09T15:26:12;12.37;;;6.50;;
57401;SDS011;43226;51.110;6.998;2023-10-09T15:28:42;15.27;;;6.10;;
57401;SDS011;43226;51.110;6.998;2023-10-09T15:31:07;9.90;;;6.10;;
57401;SDS011;43226;51.110;6.998;2023-10-09T15:33:35;10.30;;;5.60;;
57401;SDS011;43226;51.110;6.998;2023-10-09T15:36:08;10.43;;;6.60;;
57401;SDS011;43226;51.110;6.998;2023-10-09T15:38:33;11.70;;;5.87;;
57401;SDS011;43226;51.110;6.998;2023-10-09T15:40:59;14.17;;;6.07;;